createdAt,value
2023-01-02T00:01:33.207Z,8.10
2023-01-02T00:06:37.020Z,4.50
2023-01-02T00:11:41.143Z,8.25
2023-01-02T00:16:43.838Z,5.65
2023-01-02T00:21:46.592Z,4.10
2023-01-02T00:26:50.717Z,8.23
2023-01-02T00:31:53.509Z,4.07
2023-01-02T00:36:56.196Z,5.43
2023-01-02T00:42:00.292Z,6.65
2023-01-02T00:47:03.061Z,6.50
2023-01-02T00:52:06.085Z,6.97
2023-01-02T00:57:10.207Z,6.68
2023-01-02T01:02:13.014Z,5.00
2023-01-02T01:07:16.327Z,4.55
2023-01-02T01:12:20.549Z,4.72
2023-01-02T01:17:23.281Z,3.97
2023-01-02T01:22:26.295Z,4.38
2023-01-02T01:27:30.406Z,5.07
2023-01-02T01:32:33.493Z,3.55
2023-01-02T01:37:36.216Z,5.65
2023-01-02T01:42:41.892Z,6.13
2023-01-02T01:47:46.688Z,3.60
2023-01-02T01:52:52.578Z,3.05
2023-01-02T01:57:58.568Z,5.13
2023-01-02T02:03:06.731Z,6.13
2023-01-02T02:08:16.806Z,3.40
2023-01-02T02:13:20.922Z,2.90
2023-01-02T02:18:42.412Z,3.80
2023-01-02T02:24:07.829Z,4.88
2023-01-02T02:29:45.134Z,4.63
2023-01-02T02:34:55.005Z,2.80
2023-01-02T02:40:05.319Z,3.58
2023-01-02T02:45:13.846Z,3.63
2023-01-02T02:50:23.459Z,5.28
2023-01-02T02:55:28.347Z,2.63
2023-01-02T03:00:31.160Z,3.75
2023-01-02T03:05:39.985Z,2.25
2023-01-02T03:10:48.107Z,5.15
2023-01-02T03:15:54.062Z,2.38
2023-01-02T03:21:02.117Z,3.25
2023-01-02T03:26:06.303Z,2.85
2023-01-02T03:31:11.051Z,3.40
2023-01-02T03:36:18.937Z,5.30
2023-01-02T03:41:24.034Z,2.92
2023-01-02T03:46:32.164Z,2.65
2023-01-02T03:51:36.785Z,5.05
2023-01-02T03:56:49.225Z,3.65
2023-01-02T04:01:55.727Z,2.40
2023-01-02T04:07:03.849Z,3.65
2023-01-02T04:12:09.816Z,4.38
2023-01-02T04:17:13.733Z,4.03
2023-01-02T04:22:20.266Z,3.65
2023-01-02T04:27:25.679Z,4.28
2023-01-02T04:32:33.690Z,2.78
2023-01-02T04:37:40.239Z,3.05
2023-01-02T04:42:42.966Z,3.40
2023-01-02T04:47:46.041Z,2.88
2023-01-02T04:52:50.111Z,3.47
2023-01-02T04:57:52.876Z,6.65
2023-01-02T05:02:55.737Z,2.90
2023-01-02T05:08:00.135Z,3.38
2023-01-02T05:13:02.818Z,3.70
2023-01-02T05:18:05.653Z,2.80
2023-01-02T05:23:29.961Z,4.82
2023-01-02T05:28:38.446Z,3.72
2023-01-02T05:33:41.601Z,2.83
2023-01-02T05:38:45.743Z,3.78
2023-01-02T05:43:48.439Z,3.63
2023-01-02T05:48:51.249Z,2.75
2023-01-02T05:53:56.101Z,3.10
2023-01-02T05:58:59.481Z,3.28
2023-01-02T06:04:02.483Z,1.92
2023-01-02T06:09:07.434Z,3.90
2023-01-02T06:14:11.102Z,3.03
2023-01-02T06:19:13.993Z,4.07
2023-01-02T06:24:18.117Z,2.85
2023-01-02T06:29:20.897Z,4.72
2023-01-02T06:34:23.587Z,4.20
2023-01-02T06:39:27.756Z,2.63
2023-01-02T06:44:30.426Z,3.17
2023-01-02T06:49:33.190Z,2.85
2023-01-02T06:54:37.291Z,1.92
2023-01-02T06:59:40.035Z,1.90
2023-01-02T07:04:42.782Z,3.80
2023-01-02T07:09:46.902Z,3.63
2023-01-02T07:14:49.722Z,4.20
2023-01-02T07:19:54.568Z,3.70
2023-01-02T07:25:01.827Z,4.47
2023-01-02T07:30:05.153Z,4.68
2023-01-02T07:35:09.443Z,2.95
2023-01-02T07:40:14.051Z,1.55
2023-01-02T07:45:17.012Z,2.58
2023-01-02T07:50:19.801Z,4.32
2023-01-02T07:55:23.870Z,3.25
2023-01-02T08:00:26.791Z,2.08
2023-01-02T08:05:29.576Z,2.53
2023-01-02T08:10:33.848Z,1.77
2023-01-02T08:15:36.717Z,1.85
2023-01-02T08:20:39.443Z,2.70
2023-01-02T08:25:43.489Z,3.30
2023-01-02T08:30:46.483Z,4.28
2023-01-02T08:35:49.540Z,2.97
2023-01-02T08:40:53.913Z,2.22
2023-01-02T08:45:56.872Z,3.88
2023-01-02T08:50:59.655Z,4.28
2023-01-02T08:56:20.949Z,6.72
2023-01-02T09:01:25.184Z,2.80
2023-01-02T09:06:29.197Z,2.85
2023-01-02T09:11:35.325Z,2.15
2023-01-02T09:16:38.096Z,3.47
2023-01-02T09:21:40.873Z,3.80
2023-01-02T09:26:45.060Z,5.90
2023-01-02T09:31:48.175Z,2.38
2023-01-02T09:36:50.985Z,3.70
2023-01-02T09:41:57.692Z,2.40
2023-01-02T09:47:02.086Z,3.38
2023-01-02T09:52:05.407Z,2.53
2023-01-02T09:57:23.089Z,2.58
2023-01-02T10:02:38.584Z,2.58
2023-01-02T10:07:45.660Z,2.50
2023-01-02T10:12:58.479Z,3.03
2023-01-02T10:18:06.470Z,3.28
2023-01-02T10:23:13.212Z,4.03
2023-01-02T10:28:23.461Z,2.05
2023-01-02T10:33:32.161Z,2.13
2023-01-02T10:38:37.307Z,3.42
2023-01-02T10:43:41.411Z,3.20
2023-01-02T10:48:50.205Z,3.67
2023-01-02T10:54:03.297Z,4.18
2023-01-02T10:59:21.010Z,3.67
2023-01-02T11:04:25.437Z,2.83
2023-01-02T11:09:30.742Z,6.72
2023-01-02T11:14:36.256Z,5.38
2023-01-02T11:19:41.549Z,4.68
2023-01-02T11:25:00.358Z,4.75
2023-01-02T11:30:07.878Z,3.67
2023-01-02T11:35:35.256Z,5.55
2023-01-02T11:40:37.990Z,6.63
2023-01-02T11:45:42.261Z,3.50
2023-01-02T11:50:45.471Z,4.00
2023-01-02T11:55:53.751Z,3.70
2023-01-02T12:01:03.876Z,3.22
2023-01-02T12:06:15.945Z,4.45
2023-01-02T12:11:25.028Z,3.70
2023-01-02T12:16:36.998Z,3.55
2023-01-02T12:21:45.767Z,4.18
2023-01-02T12:26:52.071Z,4.18
2023-01-02T12:32:22.308Z,5.35
2023-01-02T12:37:32.951Z,5.93
2023-01-02T12:42:49.009Z,5.85
2023-01-02T12:48:02.941Z,3.67
2023-01-02T12:53:16.027Z,2.95
2023-01-02T12:58:27.414Z,10.32
2023-01-02T13:03:49.188Z,4.72
2023-01-02T13:08:57.781Z,5.50
2023-01-02T13:14:03.015Z,5.28
2023-01-02T13:19:17.701Z,3.92
2023-01-02T13:24:23.163Z,4.45
2023-01-02T13:29:30.285Z,3.75
2023-01-02T13:34:35.955Z,6.82
2023-01-02T13:39:47.814Z,6.78
2023-01-02T13:44:52.240Z,6.18
2023-01-02T13:50:01.417Z,4.45
2023-01-02T13:55:31.369Z,4.13
2023-01-02T14:00:36.777Z,8.35
2023-01-02T14:06:00.327Z,5.10
2023-01-02T14:11:09.877Z,3.13
2023-01-02T14:16:24.471Z,4.25
2023-01-02T14:21:35.142Z,7.30
2023-01-02T14:26:39.443Z,8.48
2023-01-02T14:31:42.549Z,5.57
2023-01-02T14:36:48.234Z,4.78
2023-01-02T14:42:42.138Z,6.70
2023-01-02T14:47:48.733Z,3.75
2023-01-02T14:52:59.427Z,7.70
2023-01-02T14:58:02.438Z,6.68
2023-01-02T15:03:15.666Z,6.82
2023-01-02T15:08:22.557Z,4.82
2023-01-02T15:13:28.565Z,3.17
2023-01-02T15:18:33.820Z,7.30
2023-01-02T15:23:38.879Z,7.65
2023-01-02T15:28:41.615Z,8.65
2023-01-02T15:33:44.437Z,6.95
2023-01-02T15:38:48.854Z,8.20
2023-01-02T15:44:16.399Z,4.90
2023-01-02T15:49:19.385Z,6.80
2023-01-02T15:54:23.713Z,5.72
2023-01-02T15:59:29.933Z,2.35
2023-01-02T16:04:33.733Z,3.65
2023-01-02T16:09:38.729Z,4.28
2023-01-02T16:14:43.649Z,3.65
2023-01-02T16:19:57.992Z,2.00
2023-01-02T16:25:06.953Z,6.30
2023-01-02T16:30:18.779Z,5.25
2023-01-02T16:35:24.080Z,4.82
2023-01-02T16:41:02.999Z,3.78
2023-01-02T16:46:09.445Z,3.90
2023-01-02T16:51:14.847Z,4.65
2023-01-02T16:56:18.941Z,6.40
2023-01-02T17:01:23.626Z,4.32
2023-01-02T17:06:26.466Z,4.47
2023-01-02T17:11:30.705Z,6.75
2023-01-02T17:16:33.486Z,4.50
2023-01-02T17:21:36.223Z,5.57
2023-01-02T17:26:40.331Z,3.22
2023-01-02T17:31:43.084Z,9.20
2023-01-02T17:36:45.856Z,4.35
2023-01-02T17:41:51.732Z,3.63
2023-01-02T17:52:17.711Z,6.10
2023-01-02T17:57:21.947Z,3.92
2023-01-02T18:02:24.772Z,3.53
2023-01-02T18:07:27.773Z,2.83
2023-01-02T18:12:31.935Z,1.95
2023-01-02T18:17:34.694Z,2.83
2023-01-02T18:22:41.114Z,1.05
2023-01-02T18:27:49.022Z,0.40
2023-01-02T18:32:58.567Z,0.60
2023-01-02T18:38:07.754Z,0.55
2023-01-02T18:43:19.344Z,1.52
2023-01-02T18:48:23.165Z,0.45
2023-01-02T18:53:29.479Z,1.48
2023-01-02T18:58:42.550Z,1.45
2023-01-02T19:03:46.956Z,0.55
2023-01-02T19:08:49.953Z,1.55
2023-01-02T19:13:58.769Z,0.85
2023-01-02T19:19:01.823Z,1.65
2023-01-02T19:24:17.669Z,0.75
2023-01-02T19:29:23.959Z,1.10
2023-01-02T19:34:30.360Z,1.02
2023-01-02T19:39:37.878Z,1.98
2023-01-02T19:44:45.244Z,1.38
2023-01-02T19:49:48.345Z,1.02
2023-01-02T19:54:52.348Z,1.38
2023-01-02T19:59:57.245Z,1.52
2023-01-02T20:05:00.056Z,1.13
2023-01-02T20:10:02.834Z,1.60
2023-01-02T20:15:10.372Z,1.40
2023-01-02T20:20:15.069Z,2.20
2023-01-02T20:25:21.026Z,2.22
2023-01-02T20:30:26.087Z,2.88
2023-01-02T20:35:29.841Z,2.60
2023-01-02T20:40:32.582Z,1.70
2023-01-02T20:45:36.647Z,1.08
2023-01-02T20:50:39.406Z,1.60
2023-01-02T20:55:42.124Z,1.45
2023-01-02T21:00:46.361Z,2.30
2023-01-02T21:05:49.089Z,1.25
2023-01-02T21:10:52.024Z,3.08
2023-01-02T21:15:57.976Z,1.80
2023-01-02T21:21:03.176Z,0.90
2023-01-02T21:26:07.025Z,0.77
2023-01-02T21:31:11.673Z,0.85
2023-01-02T21:36:15.535Z,0.75
2023-01-02T21:41:36.040Z,0.98
2023-01-02T21:46:40.235Z,0.90
2023-01-02T21:51:42.996Z,0.60
2023-01-02T21:56:45.808Z,1.13
2023-01-02T22:01:50.210Z,3.15
2023-01-02T22:12:15.754Z,1.05
2023-01-02T22:17:19.954Z,0.90
2023-01-02T22:22:22.737Z,1.90
2023-01-02T22:27:25.651Z,1.75
2023-01-02T22:32:31.866Z,1.58
2023-01-02T22:37:34.720Z,1.70
2023-01-02T22:43:01.622Z,1.58
2023-01-02T22:48:09.588Z,1.10
2023-01-02T22:53:19.922Z,1.23
2023-01-02T22:58:22.843Z,0.85
2023-01-02T23:03:28.651Z,1.85
2023-01-02T23:08:31.399Z,0.40
2023-01-02T23:13:34.966Z,1.38
2023-01-02T23:18:57.266Z,1.00
2023-01-02T23:24:00.559Z,3.85
2023-01-02T23:29:08.098Z,0.88
2023-01-02T23:34:15.211Z,1.20
2023-01-02T23:39:20.410Z,0.70
2023-01-02T23:44:24.210Z,0.85
2023-01-02T23:49:28.313Z,0.80
2023-01-02T23:54:31.249Z,1.60
2023-01-02T23:59:33.993Z,0.90
